sensor_id;sensor_type;location;lat;lon;timestamp;temperature;humidity
52387;DHT22;38317;53.084;6.960;2023-02-26T00:00:25;0.90;99.90
52387;DHT22;38317;53.084;6.960;2023-02-26T00:02:51;0.80;99.90
52387;DHT22;38317;53.084;6.960;2023-02-26T00:05:17;0.90;99.90
52387;DHT22;38317;53.084;6.960;2023-02-26T00:07:43;1.20;99.90
52387;DHT22;38317;53.084;6.960;2023-02-26T00:10:11;0.90;99.90
52387;DHT22;38317;53.084;6.960;2023-02-26T00:12:37;0.80;99.90
52387;DHT22;38317;53.084;6.960;2023-02-26T00:15:04;0.80;99.90
52387;DHT22;38317;53.084;6.960;2023-02-26T00:20:09;0.80;99.90
52387;DHT22;38317;53.084;6.960;2023-02-26T00:22:37;0.70;99.90
52387;DHT22;38317;53.084;6.960;2023-02-26T00:25:03;0.70;99.90
52387;DHT22;38317;53.084;6.960;2023-02-26T00:27:28;0.70;99.90
52387;DHT22;38317;53.084;6.960;2023-02-26T00:29:54;0.70;99.90
52387;DHT22;38317;53.084;6.960;2023-02-26T00:32:20;0.70;99.90
52387;DHT22;38317;53.084;6.960;2023-02-26T00:34:47;0.70;99.90
52387;DHT22;38317;53.084;6.960;2023-02-26T00:37:26;0.60;99.90
52387;DHT22;38317;53.084;6.960;2023-02-26T00:43:03;0.60;99.90
52387;DHT22;38317;53.084;6.960;2023-02-26T00:45:29;0.60;99.90
52387;DHT22;38317;53.084;6.960;2023-02-26T00:50:28;0.60;99.90
52387;DHT22;38317;53.084;6.960;2023-02-26T00:53:15;0.50;99.90
52387;DHT22;38317;53.084;6.960;2023-02-26T00:55:43;0.50;99.90
52387;DHT22;38317;53.084;6.960;2023-02-26T00:58:09;0.60;99.90
52387;DHT22;38317;53.084;6.960;2023-02-26T01:00:35;0.50;99.90
52387;DHT22;38317;53.084;6.960;2023-02-26T01:03:00;0.50;99.90
52387;DHT22;38317;53.084;6.960;2023-02-26T01:05:27;0.50;99.90
52387;DHT22;38317;53.084;6.960;2023-02-26T01:08:14;0.40;99.90
52387;DHT22;38317;53.084;6.960;2023-02-26T01:10:44;0.50;99.90
52387;DHT22;38317;53.084;6.960;2023-02-26T01:13:10;0.40;99.90
52387;DHT22;38317;53.084;6.960;2023-02-26T01:15:37;0.40;99.90
52387;DHT22;38317;53.084;6.960;2023-02-26T01:18:21;0.40;99.90
52387;DHT22;38317;53.084;6.960;2023-02-26T01:20:56;0.40;99.90
52387;DHT22;38317;53.084;6.960;2023-02-26T01:23:29;0.30;99.90
52387;DHT22;38317;53.084;6.960;2023-02-26T01:25:59;0.40;99.90
52387;DHT22;38317;53.084;6.960;2023-02-26T01:28:28;0.20;99.90
52387;DHT22;38317;53.084;6.960;2023-02-26T01:30:58;0.20;99.90
52387;DHT22;38317;53.084;6.960;2023-02-26T01:33:43;0.20;99.90
52387;DHT22;38317;53.084;6.960;2023-02-26T01:36:24;0.20;99.90
52387;DHT22;38317;53.084;6.960;2023-02-26T01:39:30;0.60;99.90
52387;DHT22;38317;53.084;6.960;2023-02-26T01:42:04;0.20;99.90
52387;DHT22;38317;53.084;6.960;2023-02-26T01:44:41;0.10;99.90
52387;DHT22;38317;53.084;6.960;2023-02-26T01:50:19;0.20;99.90
52387;DHT22;38317;53.084;6.960;2023-02-26T01:55:16;0.90;99.90
52387;DHT22;38317;53.084;6.960;2023-02-26T01:57:43;0.30;99.90
52387;DHT22;38317;53.084;6.960;2023-02-26T02:00:10;0.10;99.90
52387;DHT22;38317;53.084;6.960;2023-02-26T02:02:36;0.10;99.90
52387;DHT22;38317;53.084;6.960;2023-02-26T02:05:06;0.10;99.90
52387;DHT22;38317;53.084;6.960;2023-02-26T02:07:34;0.10;99.90
52387;DHT22;38317;53.084;6.960;2023-02-26T02:09:59;0.90;99.90
52387;DHT22;38317;53.084;6.960;2023-02-26T02:12:45;0.50;99.90
52387;DHT22;38317;53.084;6.960;2023-02-26T02:18:42;0.10;99.90
52387;DHT22;38317;53.084;6.960;2023-02-26T02:24:27;0.20;99.90
52387;DHT22;38317;53.084;6.960;2023-02-26T02:27:09;0.20;99.90
52387;DHT22;38317;53.084;6.960;2023-02-26T02:32:56;-0.10;99.90
52387;DHT22;38317;53.084;6.960;2023-02-26T02:35:33;-0.10;99.90
52387;DHT22;38317;53.084;6.960;2023-02-26T02:40:43;-0.20;99.90
52387;DHT22;38317;53.084;6.960;2023-02-26T02:43:15;-0.20;99.90
52387;DHT22;38317;53.084;6.960;2023-02-26T02:45:46;-0.30;99.90
52387;DHT22;38317;53.084;6.960;2023-02-26T02:50:56;0.10;99.90
52387;DHT22;38317;53.084;6.960;2023-02-26T02:53:59;-0.40;99.90
52387;DHT22;38317;53.084;6.960;2023-02-26T02:56:20;-0.40;99.90
52387;DHT22;38317;53.084;6.960;2023-02-26T02:58:59;-0.40;99.90
52387;DHT22;38317;53.084;6.960;2023-02-26T03:01:27;-0.50;99.90
52387;DHT22;38317;53.084;6.960;2023-02-26T03:03:59;-0.40;99.90
52387;DHT22;38317;53.084;6.960;2023-02-26T03:06:26;-0.40;99.90
52387;DHT22;38317;53.084;6.960;2023-02-26T03:08:52;-0.50;99.90
52387;DHT22;38317;53.084;6.960;2023-02-26T03:11:19;0.30;99.90
52387;DHT22;38317;53.084;6.960;2023-02-26T03:13:45;-0.40;99.90
52387;DHT22;38317;53.084;6.960;2023-02-26T03:16:54;-0.20;99.90
52387;DHT22;38317;53.084;6.960;2023-02-26T03:20:14;-0.60;99.90
52387;DHT22;38317;53.084;6.960;2023-02-26T03:26:00;-0.70;99.90
52387;DHT22;38317;53.084;6.960;2023-02-26T03:28:36;-0.70;99.90
52387;DHT22;38317;53.084;6.960;2023-02-26T03:34:02;-0.70;99.90
52387;DHT22;38317;53.084;6.960;2023-02-26T03:36:56;-0.60;99.90
52387;DHT22;38317;53.084;6.960;2023-02-26T03:39:38;-0.70;99.90
52387;DHT22;38317;53.084;6.960;2023-02-26T03:42:17;-0.70;99.90
52387;DHT22;38317;53.084;6.960;2023-02-26T03:44:56;-0.60;99.90
52387;DHT22;38317;53.084;6.960;2023-02-26T03:47:24;-0.90;99.90
52387;DHT22;38317;53.084;6.960;2023-02-26T03:52:33;-0.80;99.90
52387;DHT22;38317;53.084;6.960;2023-02-26T03:57:31;-0.80;99.90
52387;DHT22;38317;53.084;6.960;2023-02-26T03:59:57;-0.60;99.90
52387;DHT22;38317;53.084;6.960;2023-02-26T04:02:43;-0.80;99.90
52387;DHT22;38317;53.084;6.960;2023-02-26T04:05:18;-0.90;99.90
52387;DHT22;38317;53.084;6.960;2023-02-26T04:07:46;-0.90;99.90
52387;DHT22;38317;53.084;6.960;2023-02-26T04:10:16;-0.90;99.90
52387;DHT22;38317;53.084;6.960;2023-02-26T04:12:43;-1.00;99.90
52387;DHT22;38317;53.084;6.960;2023-02-26T04:15:09;-0.90;99.90
52387;DHT22;38317;53.084;6.960;2023-02-26T04:17:35;-0.90;99.90
52387;DHT22;38317;53.084;6.960;2023-02-26T04:20:01;-0.60;99.90
52387;DHT22;38317;53.084;6.960;2023-02-26T04:22:28;-0.80;99.90
52387;DHT22;38317;53.084;6.960;2023-02-26T04:24:53;-0.90;99.90
52387;DHT22;38317;53.084;6.960;2023-02-26T04:27:19;-0.90;99.90
52387;DHT22;38317;53.084;6.960;2023-02-26T04:29:45;0.00;99.90
52387;DHT22;38317;53.084;6.960;2023-02-26T04:32:10;-1.00;99.90
52387;DHT22;38317;53.084;6.960;2023-02-26T04:34:36;-0.50;99.90
52387;DHT22;38317;53.084;6.960;2023-02-26T04:37:02;-0.70;99.90
52387;DHT22;38317;53.084;6.960;2023-02-26T04:39:27;0.10;99.90
52387;DHT22;38317;53.084;6.960;2023-02-26T04:41:53;-0.90;99.90
52387;DHT22;38317;53.084;6.960;2023-02-26T04:44:19;-0.90;99.90
52387;DHT22;38317;53.084;6.960;2023-02-26T04:46:45;-0.90;99.90
52387;DHT22;38317;53.084;6.960;2023-02-26T04:49:10;-0.30;99.90
52387;DHT22;38317;53.084;6.960;2023-02-26T04:51:36;0.40;99.90
52387;DHT22;38317;53.084;6.960;2023-02-26T04:54:02;-0.10;99.90
52387;DHT22;38317;53.084;6.960;2023-02-26T04:56:28;-1.00;99.90
52387;DHT22;38317;53.084;6.960;2023-02-26T04:58:53;-0.30;99.90
52387;DHT22;38317;53.084;6.960;2023-02-26T05:01:19;-1.10;99.90
52387;DHT22;38317;53.084;6.960;2023-02-26T05:03:45;-0.90;99.90
52387;DHT22;38317;53.084;6.960;2023-02-26T05:06:10;-1.00;99.90
52387;DHT22;38317;53.084;6.960;2023-02-26T05:08:36;-1.10;99.90
52387;DHT22;38317;53.084;6.960;2023-02-26T05:11:06;-1.10;99.90
52387;DHT22;38317;53.084;6.960;2023-02-26T05:13:32;-0.70;99.90
52387;DHT22;38317;53.084;6.960;2023-02-26T05:15:58;-1.20;99.90
52387;DHT22;38317;53.084;6.960;2023-02-26T05:18:23;-1.20;99.90
52387;DHT22;38317;53.084;6.960;2023-02-26T05:20:53;-1.20;99.90
52387;DHT22;38317;53.084;6.960;2023-02-26T05:23:20;-1.30;99.90
52387;DHT22;38317;53.084;6.960;2023-02-26T05:25:46;-0.20;99.90
52387;DHT22;38317;53.084;6.960;2023-02-26T05:28:12;-1.30;99.90
52387;DHT22;38317;53.084;6.960;2023-02-26T05:30:39;0.30;99.90
52387;DHT22;38317;53.084;6.960;2023-02-26T05:33:05;-1.00;99.90
52387;DHT22;38317;53.084;6.960;2023-02-26T05:35:31;-1.30;99.90
52387;DHT22;38317;53.084;6.960;2023-02-26T05:37:57;-1.30;99.90
52387;DHT22;38317;53.084;6.960;2023-02-26T05:40:22;-1.00;99.90
52387;DHT22;38317;53.084;6.960;2023-02-26T05:42:48;-0.90;99.90
52387;DHT22;38317;53.084;6.960;2023-02-26T05:45:14;-1.10;99.90
52387;DHT22;38317;53.084;6.960;2023-02-26T05:47:40;-0.80;99.90
52387;DHT22;38317;53.084;6.960;2023-02-26T05:50:06;-1.20;99.90
52387;DHT22;38317;53.084;6.960;2023-02-26T05:52:32;-1.30;99.90
52387;DHT22;38317;53.084;6.960;2023-02-26T05:54:58;-1.00;99.90
52387;DHT22;38317;53.084;6.960;2023-02-26T05:57:24;-1.00;99.90
52387;DHT22;38317;53.084;6.960;2023-02-26T05:59:49;-1.10;99.90
52387;DHT22;38317;53.084;6.960;2023-02-26T06:02:15;-1.30;99.90
52387;DHT22;38317;53.084;6.960;2023-02-26T06:04:41;-1.00;99.90
52387;DHT22;38317;53.084;6.960;2023-02-26T06:07:07;-1.20;99.90
52387;DHT22;38317;53.084;6.960;2023-02-26T06:09:33;-0.70;99.90
52387;DHT22;38317;53.084;6.960;2023-02-26T06:11:58;-1.10;99.90
52387;DHT22;38317;53.084;6.960;2023-02-26T06:14:24;-1.40;99.90
52387;DHT22;38317;53.084;6.960;2023-02-26T06:16:50;-1.50;99.90
52387;DHT22;38317;53.084;6.960;2023-02-26T06:19:16;-1.40;99.90
52387;DHT22;38317;53.084;6.960;2023-02-26T06:21:41;-1.20;99.90
52387;DHT22;38317;53.084;6.960;2023-02-26T06:24:07;-1.00;99.90
52387;DHT22;38317;53.084;6.960;2023-02-26T06:26:33;-1.30;99.90
52387;DHT22;38317;53.084;6.960;2023-02-26T06:28:59;-0.90;99.90
52387;DHT22;38317;53.084;6.960;2023-02-26T06:31:24;-1.10;99.90
52387;DHT22;38317;53.084;6.960;2023-02-26T06:33:50;-1.10;99.90
52387;DHT22;38317;53.084;6.960;2023-02-26T06:36:16;-1.30;99.90
52387;DHT22;38317;53.084;6.960;2023-02-26T06:38:42;-1.10;99.90
52387;DHT22;38317;53.084;6.960;2023-02-26T06:41:10;-0.70;99.90
52387;DHT22;38317;53.084;6.960;2023-02-26T06:43:36;0.10;99.90
52387;DHT22;38317;53.084;6.960;2023-02-26T06:46:01;-1.20;99.90
52387;DHT22;38317;53.084;6.960;2023-02-26T06:48:27;-1.00;99.90
52387;DHT22;38317;53.084;6.960;2023-02-26T06:50:53;-1.00;99.90
52387;DHT22;38317;53.084;6.960;2023-02-26T06:53:19;-1.10;99.90
52387;DHT22;38317;53.084;6.960;2023-02-26T06:55:48;-1.20;99.90
52387;DHT22;38317;53.084;6.960;2023-02-26T06:58:14;-1.10;99.90
52387;DHT22;38317;53.084;6.960;2023-02-26T07:00:39;-1.10;99.90
52387;DHT22;38317;53.084;6.960;2023-02-26T07:03:06;-1.10;99.90
52387;DHT22;38317;53.084;6.960;2023-02-26T07:05:34;-0.60;99.90
52387;DHT22;38317;53.084;6.960;2023-02-26T07:08:00;-1.20;99.90
52387;DHT22;38317;53.084;6.960;2023-02-26T07:10:25;-1.10;99.90
52387;DHT22;38317;53.084;6.960;2023-02-26T07:12:51;-0.50;99.90
52387;DHT22;38317;53.084;6.960;2023-02-26T07:15:17;-0.90;99.90
52387;DHT22;38317;53.084;6.960;2023-02-26T07:17:43;-0.80;99.90
52387;DHT22;38317;53.084;6.960;2023-02-26T07:20:09;-0.90;99.90
52387;DHT22;38317;53.084;6.960;2023-02-26T07:22:37;-1.10;99.90
52387;DHT22;38317;53.084;6.960;2023-02-26T07:25:03;-0.90;99.90
52387;DHT22;38317;53.084;6.960;2023-02-26T07:27:30;-1.00;99.90
52387;DHT22;38317;53.084;6.960;2023-02-26T07:29:58;-0.10;99.90
52387;DHT22;38317;53.084;6.960;2023-02-26T07:32:24;-0.70;99.90
52387;DHT22;38317;53.084;6.960;2023-02-26T07:34:50;-0.80;99.90
52387;DHT22;38317;53.084;6.960;2023-02-26T07:37:16;-1.00;99.90
52387;DHT22;38317;53.084;6.960;2023-02-26T07:39:42;-0.70;99.90
52387;DHT22;38317;53.084;6.960;2023-02-26T07:42:08;-0.80;99.90
52387;DHT22;38317;53.084;6.960;2023-02-26T07:44:34;-0.80;99.90
52387;DHT22;38317;53.084;6.960;2023-02-26T07:47:00;-0.80;99.90
52387;DHT22;38317;53.084;6.960;2023-02-26T07:49:25;-0.80;99.90
52387;DHT22;38317;53.084;6.960;2023-02-26T07:51:51;-0.60;99.90
52387;DHT22;38317;53.084;6.960;2023-02-26T07:54:17;-0.80;99.90
52387;DHT22;38317;53.084;6.960;2023-02-26T07:56:43;-0.80;99.90
52387;DHT22;38317;53.084;6.960;2023-02-26T07:59:09;0.60;99.90
52387;DHT22;38317;53.084;6.960;2023-02-26T08:01:35;-0.70;99.90
52387;DHT22;38317;53.084;6.960;2023-02-26T08:04:01;0.40;99.90
52387;DHT22;38317;53.084;6.960;2023-02-26T08:06:27;-0.60;99.90
52387;DHT22;38317;53.084;6.960;2023-02-26T08:08:53;-0.60;99.90
52387;DHT22;38317;53.084;6.960;2023-02-26T08:11:19;-0.30;99.90
52387;DHT22;38317;53.084;6.960;2023-02-26T08:13:45;-0.40;99.90
52387;DHT22;38317;53.084;6.960;2023-02-26T08:16:10;-0.20;99.90
52387;DHT22;38317;53.084;6.960;2023-02-26T08:18:37;0.60;99.90
52387;DHT22;38317;53.084;6.960;2023-02-26T08:21:04;0.20;99.90
52387;DHT22;38317;53.084;6.960;2023-02-26T08:23:30;0.30;99.90
52387;DHT22;38317;53.084;6.960;2023-02-26T08:26:05;0.40;99.90
52387;DHT22;38317;53.084;6.960;2023-02-26T08:28:32;0.60;99.90
52387;DHT22;38317;53.084;6.960;2023-02-26T08:30:59;0.70;99.90
52387;DHT22;38317;53.084;6.960;2023-02-26T08:33:25;0.80;99.90
52387;DHT22;38317;53.084;6.960;2023-02-26T08:35:51;1.30;99.90
52387;DHT22;38317;53.084;6.960;2023-02-26T08:38:18;1.30;99.90
52387;DHT22;38317;53.084;6.960;2023-02-26T08:40:47;1.40;99.90
52387;DHT22;38317;53.084;6.960;2023-02-26T08:43:13;1.50;99.90
52387;DHT22;38317;53.084;6.960;2023-02-26T08:45:39;1.90;99.90
52387;DHT22;38317;53.084;6.960;2023-02-26T08:48:04;1.90;99.90
52387;DHT22;38317;53.084;6.960;2023-02-26T08:50:30;2.00;99.90
52387;DHT22;38317;53.084;6.960;2023-02-26T08:52:56;2.10;99.90
52387;DHT22;38317;53.084;6.960;2023-02-26T08:55:23;2.10;99.90
52387;DHT22;38317;53.084;6.960;2023-02-26T08:57:49;2.30;99.90
52387;DHT22;38317;53.084;6.960;2023-02-26T09:00:15;2.70;99.90
52387;DHT22;38317;53.084;6.960;2023-02-26T09:02:41;2.40;99.90
52387;DHT22;38317;53.084;6.960;2023-02-26T09:05:07;2.50;99.90
52387;DHT22;38317;53.084;6.960;2023-02-26T09:07:34;2.60;99.90
52387;DHT22;38317;53.084;6.960;2023-02-26T09:09:59;2.70;99.90
52387;DHT22;38317;53.084;6.960;2023-02-26T09:12:25;2.80;99.90
52387;DHT22;38317;53.084;6.960;2023-02-26T09:14:51;2.80;99.90
52387;DHT22;38317;53.084;6.960;2023-02-26T09:17:17;3.00;99.90
52387;DHT22;38317;53.084;6.960;2023-02-26T09:19:43;3.00;99.90
52387;DHT22;38317;53.084;6.960;2023-02-26T09:22:08;3.10;99.90
52387;DHT22;38317;53.084;6.960;2023-02-26T09:24:34;3.30;99.90
52387;DHT22;38317;53.084;6.960;2023-02-26T09:27:00;3.20;99.90
52387;DHT22;38317;53.084;6.960;2023-02-26T09:29:28;3.30;99.90
52387;DHT22;38317;53.084;6.960;2023-02-26T09:31:54;3.30;99.90
52387;DHT22;38317;53.084;6.960;2023-02-26T09:34:20;3.40;99.90
52387;DHT22;38317;53.084;6.960;2023-02-26T09:36:45;3.50;99.90
52387;DHT22;38317;53.084;6.960;2023-02-26T09:39:11;3.40;99.90
52387;DHT22;38317;53.084;6.960;2023-02-26T09:41:42;3.50;99.90
52387;DHT22;38317;53.084;6.960;2023-02-26T09:44:33;3.50;99.90
52387;DHT22;38317;53.084;6.960;2023-02-26T09:49:49;3.70;99.90
52387;DHT22;38317;53.084;6.960;2023-02-26T09:52:26;3.70;99.90
52387;DHT22;38317;53.084;6.960;2023-02-26T09:54:57;3.80;99.90
52387;DHT22;38317;53.084;6.960;2023-02-26T09:57:35;3.80;99.90
52387;DHT22;38317;53.084;6.960;2023-02-26T10:08:30;4.50;99.90
52387;DHT22;38317;53.084;6.960;2023-02-26T10:11:50;4.70;99.90
52387;DHT22;38317;53.084;6.960;2023-02-26T10:13:57;4.90;99.90
52387;DHT22;38317;53.084;6.960;2023-02-26T10:16:44;5.10;99.90
52387;DHT22;38317;53.084;6.960;2023-02-26T10:19:15;5.30;99.90
52387;DHT22;38317;53.084;6.960;2023-02-26T10:21:49;5.40;99.90
52387;DHT22;38317;53.084;6.960;2023-02-26T10:24:41;5.50;99.90
52387;DHT22;38317;53.084;6.960;2023-02-26T10:27:14;5.50;99.90
52387;DHT22;38317;53.084;6.960;2023-02-26T10:30:07;5.50;99.90
52387;DHT22;38317;53.084;6.960;2023-02-26T10:33:02;5.60;99.90
52387;DHT22;38317;53.084;6.960;2023-02-26T10:35:31;5.80;99.90
52387;DHT22;38317;53.084;6.960;2023-02-26T10:38:10;5.90;99.90
52387;DHT22;38317;53.084;6.960;2023-02-26T10:40:37;6.00;99.90
52387;DHT22;38317;53.084;6.960;2023-02-26T10:45:47;6.20;99.90
52387;DHT22;38317;53.084;6.960;2023-02-26T10:48:34;6.30;99.90
52387;DHT22;38317;53.084;6.960;2023-02-26T10:51:25;6.50;99.90
52387;DHT22;38317;53.084;6.960;2023-02-26T10:54:02;6.60;99.90
52387;DHT22;38317;53.084;6.960;2023-02-26T10:56:31;6.70;99.90
52387;DHT22;38317;53.084;6.960;2023-02-26T10:58:57;6.70;99.90
52387;DHT22;38317;53.084;6.960;2023-02-26T11:01:25;6.70;99.90
52387;DHT22;38317;53.084;6.960;2023-02-26T11:04:07;6.80;99.90
52387;DHT22;38317;53.084;6.960;2023-02-26T11:06:40;6.80;99.90
52387;DHT22;38317;53.084;6.960;2023-02-26T11:09:22;7.00;99.90
52387;DHT22;38317;53.084;6.960;2023-02-26T11:12:05;7.10;99.90
52387;DHT22;38317;53.084;6.960;2023-02-26T11:14:32;7.20;99.90
52387;DHT22;38317;53.084;6.960;2023-02-26T11:17:01;7.20;99.90
52387;DHT22;38317;53.084;6.960;2023-02-26T11:19:32;7.10;99.90
52387;DHT22;38317;53.084;6.960;2023-02-26T11:22:01;7.00;99.90
52387;DHT22;38317;53.084;6.960;2023-02-26T11:24:39;6.80;99.90
52387;DHT22;38317;53.084;6.960;2023-02-26T11:27:11;6.80;99.90
52387;DHT22;38317;53.084;6.960;2023-02-26T11:29:40;6.80;99.90
52387;DHT22;38317;53.084;6.960;2023-02-26T11:32:13;6.80;99.90
52387;DHT22;38317;53.084;6.960;2023-02-26T11:34:46;6.80;99.90
52387;DHT22;38317;53.084;6.960;2023-02-26T11:37:18;6.80;99.90
52387;DHT22;38317;53.084;6.960;2023-02-26T11:39:46;6.70;99.90
52387;DHT22;38317;53.084;6.960;2023-02-26T11:42:12;6.80;99.90
52387;DHT22;38317;53.084;6.960;2023-02-26T11:44:42;6.80;99.90
52387;DHT22;38317;53.084;6.960;2023-02-26T11:47:15;6.80;99.90
52387;DHT22;38317;53.084;6.960;2023-02-26T11:49:45;6.60;99.90
52387;DHT22;38317;53.084;6.960;2023-02-26T11:52:35;6.80;99.90
52387;DHT22;38317;53.084;6.960;2023-02-26T11:55:17;6.70;99.90
52387;DHT22;38317;53.084;6.960;2023-02-26T11:57:43;6.60;99.90
52387;DHT22;38317;53.084;6.960;2023-02-26T12:00:36;6.50;99.90
52387;DHT22;38317;53.084;6.960;2023-02-26T12:03:16;6.30;99.90
52387;DHT22;38317;53.084;6.960;2023-02-26T12:05:42;6.20;99.90
52387;DHT22;38317;53.084;6.960;2023-02-26T12:08:24;6.30;99.90
52387;DHT22;38317;53.084;6.960;2023-02-26T12:25:34;7.40;99.90
52387;DHT22;38317;53.084;6.960;2023-02-26T12:41:31;8.10;99.90
52387;DHT22;38317;53.084;6.960;2023-02-26T12:44:06;8.10;99.90
52387;DHT22;38317;53.084;6.960;2023-02-26T12:54:44;7.30;99.90
52387;DHT22;38317;53.084;6.960;2023-02-26T13:08:20;7.60;99.90
52387;DHT22;38317;53.084;6.960;2023-02-26T13:21:32;7.60;99.90
52387;DHT22;38317;53.084;6.960;2023-02-26T13:24:35;7.70;99.90
52387;DHT22;38317;53.084;6.960;2023-02-26T13:27:04;7.70;99.90
52387;DHT22;38317;53.084;6.960;2023-02-26T13:30:05;7.70;99.90
52387;DHT22;38317;53.084;6.960;2023-02-26T13:32:35;7.60;99.90
52387;DHT22;38317;53.084;6.960;2023-02-26T13:35:24;7.60;99.90
52387;DHT22;38317;53.084;6.960;2023-02-26T13:37:54;7.50;99.90
52387;DHT22;38317;53.084;6.960;2023-02-26T13:47:57;7.60;99.90
52387;DHT22;38317;53.084;6.960;2023-02-26T13:50:52;7.60;99.90
52387;DHT22;38317;53.084;6.960;2023-02-26T13:55:51;7.80;99.90
52387;DHT22;38317;53.084;6.960;2023-02-26T13:58:28;7.70;99.90
52387;DHT22;38317;53.084;6.960;2023-02-26T14:01:05;7.40;99.90
52387;DHT22;38317;53.084;6.960;2023-02-26T14:03:34;7.10;99.90
52387;DHT22;38317;53.084;6.960;2023-02-26T14:08:46;6.90;99.90
52387;DHT22;38317;53.084;6.960;2023-02-26T14:11:44;7.00;99.90
52387;DHT22;38317;53.084;6.960;2023-02-26T14:19:45;7.10;99.90
52387;DHT22;38317;53.084;6.960;2023-02-26T14:22:36;6.80;99.90
52387;DHT22;38317;53.084;6.960;2023-02-26T14:25:20;6.60;99.90
52387;DHT22;38317;53.084;6.960;2023-02-26T14:30:49;6.60;99.90
52387;DHT22;38317;53.084;6.960;2023-02-26T14:33:17;6.60;99.90
52387;DHT22;38317;53.084;6.960;2023-02-26T14:35:49;6.50;99.90
52387;DHT22;38317;53.084;6.960;2023-02-26T14:38:33;6.30;99.90
52387;DHT22;38317;53.084;6.960;2023-02-26T14:41:04;6.40;99.90
52387;DHT22;38317;53.084;6.960;2023-02-26T14:43:35;6.50;99.90
52387;DHT22;38317;53.084;6.960;2023-02-26T14:46:03;6.60;99.90
52387;DHT22;38317;53.084;6.960;2023-02-26T14:48:29;6.60;99.90
52387;DHT22;38317;53.084;6.960;2023-02-26T14:57:01;6.30;99.90
52387;DHT22;38317;53.084;6.960;2023-02-26T14:59:43;6.40;99.90
52387;DHT22;38317;53.084;6.960;2023-02-26T15:04:51;6.30;99.90
52387;DHT22;38317;53.084;6.960;2023-02-26T15:15:44;6.50;99.90
52387;DHT22;38317;53.084;6.960;2023-02-26T15:23:52;6.00;99.90
52387;DHT22;38317;53.084;6.960;2023-02-26T15:26:22;5.80;99.90
52387;DHT22;38317;53.084;6.960;2023-02-26T15:28:50;5.90;99.90
52387;DHT22;38317;53.084;6.960;2023-02-26T15:31:19;6.00;99.90
52387;DHT22;38317;53.084;6.960;2023-02-26T15:33:49;6.00;99.90
52387;DHT22;38317;53.084;6.960;2023-02-26T15:36:18;5.90;99.90
52387;DHT22;38317;53.084;6.960;2023-02-26T15:38:57;5.80;99.90
52387;DHT22;38317;53.084;6.960;2023-02-26T15:41:24;5.70;99.90
52387;DHT22;38317;53.084;6.960;2023-02-26T15:44:03;5.60;99.90
52387;DHT22;38317;53.084;6.960;2023-02-26T15:46:32;5.50;99.90
52387;DHT22;38317;53.084;6.960;2023-02-26T15:49:04;5.40;99.90
52387;DHT22;38317;53.084;6.960;2023-02-26T15:51:31;5.40;99.90
52387;DHT22;38317;53.084;6.960;2023-02-26T15:53:57;5.40;99.90
52387;DHT22;38317;53.084;6.960;2023-02-26T15:56:33;5.30;99.90
52387;DHT22;38317;53.084;6.960;2023-02-26T15:59:05;5.30;99.90
52387;DHT22;38317;53.084;6.960;2023-02-26T16:01:32;5.30;99.90
52387;DHT22;38317;53.084;6.960;2023-02-26T16:04:03;5.30;99.90
52387;DHT22;38317;53.084;6.960;2023-02-26T16:08:56;5.20;99.90
52387;DHT22;38317;53.084;6.960;2023-02-26T16:11:23;5.10;99.90
52387;DHT22;38317;53.084;6.960;2023-02-26T16:13:52;5.00;99.90
52387;DHT22;38317;53.084;6.960;2023-02-26T16:16:23;5.00;99.90
52387;DHT22;38317;53.084;6.960;2023-02-26T16:18:50;4.90;99.90
52387;DHT22;38317;53.084;6.960;2023-02-26T16:21:26;4.90;99.90
52387;DHT22;38317;53.084;6.960;2023-02-26T16:23:53;4.80;99.90
52387;DHT22;38317;53.084;6.960;2023-02-26T16:26:38;4.80;99.90
52387;DHT22;38317;53.084;6.960;2023-02-26T16:29:12;4.70;99.90
52387;DHT22;38317;53.084;6.960;2023-02-26T16:31:39;4.60;99.90
52387;DHT22;38317;53.084;6.960;2023-02-26T16:34:49;4.50;99.90
52387;DHT22;38317;53.084;6.960;2023-02-26T16:37:31;3.40;99.90
52387;DHT22;38317;53.084;6.960;2023-02-26T16:40:22;4.50;99.90
52387;DHT22;38317;53.084;6.960;2023-02-26T16:47:43;4.40;99.90
52387;DHT22;38317;53.084;6.960;2023-02-26T16:50:23;4.40;99.90
52387;DHT22;38317;53.084;6.960;2023-02-26T16:53:15;4.40;99.90
52387;DHT22;38317;53.084;6.960;2023-02-26T16:55:54;4.30;99.90
52387;DHT22;38317;53.084;6.960;2023-02-26T16:58:20;4.30;99.90
52387;DHT22;38317;53.084;6.960;2023-02-26T17:00:52;4.20;99.90
52387;DHT22;38317;53.084;6.960;2023-02-26T17:03:23;4.20;99.90
52387;DHT22;38317;53.084;6.960;2023-02-26T17:05:59;4.10;99.90
52387;DHT22;38317;53.084;6.960;2023-02-26T17:08:34;4.10;99.90
52387;DHT22;38317;53.084;6.960;2023-02-26T17:11:08;4.00;99.90
52387;DHT22;38317;53.084;6.960;2023-02-26T17:13:41;4.00;99.90
52387;DHT22;38317;53.084;6.960;2023-02-26T17:16:10;3.90;99.90
52387;DHT22;38317;53.084;6.960;2023-02-26T17:18:36;3.80;99.90
52387;DHT22;38317;53.084;6.960;2023-02-26T17:21:03;3.80;99.90
52387;DHT22;38317;53.084;6.960;2023-02-26T17:23:32;3.70;99.90
52387;DHT22;38317;53.084;6.960;2023-02-26T17:26:01;3.60;99.90
52387;DHT22;38317;53.084;6.960;2023-02-26T17:28:31;3.60;99.90
52387;DHT22;38317;53.084;6.960;2023-02-26T17:31:00;3.60;99.90
52387;DHT22;38317;53.084;6.960;2023-02-26T17:33:26;3.50;99.90
52387;DHT22;38317;53.084;6.960;2023-02-26T17:35:57;3.50;99.90
52387;DHT22;38317;53.084;6.960;2023-02-26T17:38:23;3.40;99.90
52387;DHT22;38317;53.084;6.960;2023-02-26T17:40:49;3.40;99.90
52387;DHT22;38317;53.084;6.960;2023-02-26T17:43:19;3.40;99.90
52387;DHT22;38317;53.084;6.960;2023-02-26T17:45:44;3.40;99.90
52387;DHT22;38317;53.084;6.960;2023-02-26T17:48:12;3.30;99.90
52387;DHT22;38317;53.084;6.960;2023-02-26T17:53:08;3.30;99.90
52387;DHT22;38317;53.084;6.960;2023-02-26T17:55:35;3.20;99.90
52387;DHT22;38317;53.084;6.960;2023-02-26T17:58:11;3.20;99.90
52387;DHT22;38317;53.084;6.960;2023-02-26T18:00:38;3.10;99.90
52387;DHT22;38317;53.084;6.960;2023-02-26T18:03:07;3.10;99.90
52387;DHT22;38317;53.084;6.960;2023-02-26T18:05:33;3.10;99.90
52387;DHT22;38317;53.084;6.960;2023-02-26T18:08:15;3.00;99.90
52387;DHT22;38317;53.084;6.960;2023-02-26T18:10:42;3.00;99.90
52387;DHT22;38317;53.084;6.960;2023-02-26T18:13:09;2.90;99.90
52387;DHT22;38317;53.084;6.960;2023-02-26T18:15:35;2.90;99.90
52387;DHT22;38317;53.084;6.960;2023-02-26T18:18:01;2.90;99.90
52387;DHT22;38317;53.084;6.960;2023-02-26T18:20:27;2.80;99.90
52387;DHT22;38317;53.084;6.960;2023-02-26T18:22:54;2.80;99.90
52387;DHT22;38317;53.084;6.960;2023-02-26T18:25:21;2.80;99.90
52387;DHT22;38317;53.084;6.960;2023-02-26T18:27:50;2.70;99.90
52387;DHT22;38317;53.084;6.960;2023-02-26T18:30:24;2.70;99.90
52387;DHT22;38317;53.084;6.960;2023-02-26T18:32:50;2.80;99.90
52387;DHT22;38317;53.084;6.960;2023-02-26T18:35:16;2.70;99.90
52387;DHT22;38317;53.084;6.960;2023-02-26T18:37:43;2.70;99.90
52387;DHT22;38317;53.084;6.960;2023-02-26T18:40:18;2.80;99.90
52387;DHT22;38317;53.084;6.960;2023-02-26T18:42:46;2.80;99.90
52387;DHT22;38317;53.084;6.960;2023-02-26T18:45:12;2.40;99.90
52387;DHT22;38317;53.084;6.960;2023-02-26T18:47:38;2.70;99.90